sensor_id;sensor_type;location;lat;lon;timestamp;temperature;humidity
35970;DHT22;22448;51.298;6.430;2022-10-28T07:02:05;15.10;99.90
35970;DHT22;22448;51.298;6.430;2022-10-28T07:04:33;15.20;99.90
35970;DHT22;22448;51.298;6.430;2022-10-28T07:07:00;15.30;99.90
35970;DHT22;22448;51.298;6.430;2022-10-28T07:09:28;15.40;99.90
35970;DHT22;22448;51.298;6.430;2022-10-28T07:20:36;15.80;99.90
35970;DHT22;22448;51.298;6.430;2022-10-28T07:23:04;15.90;99.90
35970;DHT22;22448;51.298;6.430;2022-10-28T07:25:34;16.00;99.90
35970;DHT22;22448;51.298;6.430;2022-10-28T07:28:04;16.10;99.90
35970;DHT22;22448;51.298;6.430;2022-10-28T07:39:42;16.50;99.90
35970;DHT22;22448;51.298;6.430;2022-10-28T07:42:09;16.70;99.90
35970;DHT22;22448;51.298;6.430;2022-10-28T07:44:38;17.00;99.90
35970;DHT22;22448;51.298;6.430;2022-10-28T07:47:06;17.20;99.90
35970;DHT22;22448;51.298;6.430;2022-10-28T07:49:33;17.30;99.90
35970;DHT22;22448;51.298;6.430;2022-10-28T07:52:03;17.60;99.90
35970;DHT22;22448;51.298;6.430;2022-10-28T07:54:30;17.60;99.90
35970;DHT22;22448;51.298;6.430;2022-10-28T07:56:57;17.60;99.90
35970;DHT22;22448;51.298;6.430;2022-10-28T07:59:24;17.40;99.90
35970;DHT22;22448;51.298;6.430;2022-10-28T08:01:53;17.40;99.90
35970;DHT22;22448;51.298;6.430;2022-10-28T08:04:20;17.40;99.90
35970;DHT22;22448;51.298;6.430;2022-10-28T08:06:47;17.60;99.90
35970;DHT22;22448;51.298;6.430;2022-10-28T08:09:15;17.60;99.90
35970;DHT22;22448;51.298;6.430;2022-10-28T08:11:42;17.70;99.90
35970;DHT22;22448;51.298;6.430;2022-10-28T08:14:09;17.70;99.90
35970;DHT22;22448;51.298;6.430;2022-10-28T08:16:36;17.80;99.90
35970;DHT22;22448;51.298;6.430;2022-10-28T08:19:03;18.00;99.90
35970;DHT22;22448;51.298;6.430;2022-10-28T08:21:33;18.20;99.90
35970;DHT22;22448;51.298;6.430;2022-10-28T08:24:00;19.00;99.90
35970;DHT22;22448;51.298;6.430;2022-10-28T08:26:27;19.60;99.90
35970;DHT22;22448;51.298;6.430;2022-10-28T08:28:54;19.80;99.90
35970;DHT22;22448;51.298;6.430;2022-10-28T08:31:21;20.10;99.90
35970;DHT22;22448;51.298;6.430;2022-10-28T08:33:48;20.20;99.90
35970;DHT22;22448;51.298;6.430;2022-10-28T08:36:15;19.70;99.90
35970;DHT22;22448;51.298;6.430;2022-10-28T08:38:44;19.30;99.90
35970;DHT22;22448;51.298;6.430;2022-10-28T08:41:21;19.10;99.90
35970;DHT22;22448;51.298;6.430;2022-10-28T08:46:50;19.00;99.90
35970;DHT22;22448;51.298;6.430;2022-10-28T08:49:21;19.00;99.90
35970;DHT22;22448;51.298;6.430;2022-10-28T08:54:35;19.00;99.90
35970;DHT22;22448;51.298;6.430;2022-10-28T08:57:05;19.10;99.90
35970;DHT22;22448;51.298;6.430;2022-10-28T08:59:43;19.00;99.90
35970;DHT22;22448;51.298;6.430;2022-10-28T09:02:21;19.10;99.90
35970;DHT22;22448;51.298;6.430;2022-10-28T09:07:42;19.20;99.90
35970;DHT22;22448;51.298;6.430;2022-10-28T09:10:11;19.30;99.90
35970;DHT22;22448;51.298;6.430;2022-10-28T09:13:03;19.40;99.90
35970;DHT22;22448;51.298;6.430;2022-10-28T09:15:49;19.40;99.90
35970;DHT22;22448;51.298;6.430;2022-10-28T09:18:21;19.50;99.90
35970;DHT22;22448;51.298;6.430;2022-10-28T09:20:52;19.60;99.90
35970;DHT22;22448;51.298;6.430;2022-10-28T09:23:28;19.60;99.90
35970;DHT22;22448;51.298;6.430;2022-10-28T09:26:01;19.60;99.90
35970;DHT22;22448;51.298;6.430;2022-10-28T09:32:09;19.60;99.90
35970;DHT22;22448;51.298;6.430;2022-10-28T09:34:46;19.70;99.90
35970;DHT22;22448;51.298;6.430;2022-10-28T09:37:30;19.70;99.90
35970;DHT22;22448;51.298;6.430;2022-10-28T09:40:10;19.90;99.90
35970;DHT22;22448;51.298;6.430;2022-10-28T09:42:57;20.00;99.90
35970;DHT22;22448;51.298;6.430;2022-10-28T09:45:28;20.00;99.90
35970;DHT22;22448;51.298;6.430;2022-10-28T09:48:04;20.10;99.90
35970;DHT22;22448;51.298;6.430;2022-10-28T09:50:34;20.20;99.90
35970;DHT22;22448;51.298;6.430;2022-10-28T09:53:34;20.10;99.90
35970;DHT22;22448;51.298;6.430;2022-10-28T09:56:27;20.20;99.90
35970;DHT22;22448;51.298;6.430;2022-10-28T09:58:58;20.30;99.90
35970;DHT22;22448;51.298;6.430;2022-10-28T10:01:37;20.30;99.90
35970;DHT22;22448;51.298;6.430;2022-10-28T10:04:19;20.40;99.90
35970;DHT22;22448;51.298;6.430;2022-10-28T10:07:10;20.40;99.90
35970;DHT22;22448;51.298;6.430;2022-10-28T10:09:36;20.40;99.90
35970;DHT22;22448;51.298;6.430;2022-10-28T10:12:07;20.50;99.90
35970;DHT22;22448;51.298;6.430;2022-10-28T10:14:47;20.60;99.90
35970;DHT22;22448;51.298;6.430;2022-10-28T10:17:18;20.70;99.90
35970;DHT22;22448;51.298;6.430;2022-10-28T10:20:10;20.70;99.90
35970;DHT22;22448;51.298;6.430;2022-10-28T10:22:40;20.90;99.90
35970;DHT22;22448;51.298;6.430;2022-10-28T10:28:04;21.20;99.90
35970;DHT22;22448;51.298;6.430;2022-10-28T10:30:54;21.20;99.90
35970;DHT22;22448;51.298;6.430;2022-10-28T10:33:31;21.20;99.90
35970;DHT22;22448;51.298;6.430;2022-10-28T10:36:14;21.10;99.90
35970;DHT22;22448;51.298;6.430;2022-10-28T10:39:01;21.00;99.90
35970;DHT22;22448;51.298;6.430;2022-10-28T10:41:37;21.00;99.90
35970;DHT22;22448;51.298;6.430;2022-10-28T10:49:34;21.20;99.90
35970;DHT22;22448;51.298;6.430;2022-10-28T10:52:05;21.30;99.90
35970;DHT22;22448;51.298;6.430;2022-10-28T10:54:36;21.30;99.90
35970;DHT22;22448;51.298;6.430;2022-10-28T10:57:16;21.30;99.90
35970;DHT22;22448;51.298;6.430;2022-10-28T10:59:50;21.40;99.90
35970;DHT22;22448;51.298;6.430;2022-10-28T11:04:53;21.70;99.90
35970;DHT22;22448;51.298;6.430;2022-10-28T11:07:21;21.70;99.90
35970;DHT22;22448;51.298;6.430;2022-10-28T11:09:49;21.80;99.90
35970;DHT22;22448;51.298;6.430;2022-10-28T11:14:56;21.90;99.90
35970;DHT22;22448;51.298;6.430;2022-10-28T11:17:28;21.90;99.90
35970;DHT22;22448;51.298;6.430;2022-10-28T11:23:13;22.10;99.90
35970;DHT22;22448;51.298;6.430;2022-10-28T11:25:48;22.20;99.90
35970;DHT22;22448;51.298;6.430;2022-10-28T11:36:58;22.60;99.90
35970;DHT22;22448;51.298;6.430;2022-10-28T11:39:50;22.70;99.90
35970;DHT22;22448;51.298;6.430;2022-10-28T11:45:36;22.90;99.90
35970;DHT22;22448;51.298;6.430;2022-10-28T11:59:11;23.20;99.90
35970;DHT22;22448;51.298;6.430;2022-10-28T12:04:27;23.30;99.90
35970;DHT22;22448;51.298;6.430;2022-10-28T12:09:33;23.30;99.90
35970;DHT22;22448;51.298;6.430;2022-10-28T12:12:08;23.30;99.90
35970;DHT22;22448;51.298;6.430;2022-10-28T12:14:56;23.30;99.90
35970;DHT22;22448;51.298;6.430;2022-10-28T12:17:36;23.40;99.90
35970;DHT22;22448;51.298;6.430;2022-10-28T12:20:16;23.50;99.90
35970;DHT22;22448;51.298;6.430;2022-10-28T12:22:54;23.60;99.90
35970;DHT22;22448;51.298;6.430;2022-10-28T12:25:26;23.80;99.90
35970;DHT22;22448;51.298;6.430;2022-10-28T12:27:57;23.80;99.90
35970;DHT22;22448;51.298;6.430;2022-10-28T12:30:35;23.80;99.90
35970;DHT22;22448;51.298;6.430;2022-10-28T12:36:18;23.70;99.90
35970;DHT22;22448;51.298;6.430;2022-10-28T12:44:22;23.80;99.90
35970;DHT22;22448;51.298;6.430;2022-10-28T12:47:04;23.80;99.90
35970;DHT22;22448;51.298;6.430;2022-10-28T12:50:35;23.80;99.90
35970;DHT22;22448;51.298;6.430;2022-10-28T12:55:39;23.80;99.90
35970;DHT22;22448;51.298;6.430;2022-10-28T13:00:47;23.70;99.90
35970;DHT22;22448;51.298;6.430;2022-10-28T13:03:17;23.60;99.90
35970;DHT22;22448;51.298;6.430;2022-10-28T13:16:52;23.40;99.90
35970;DHT22;22448;51.298;6.430;2022-10-28T13:19:34;23.40;99.90
35970;DHT22;22448;51.298;6.430;2022-10-28T13:22:26;23.30;99.90
35970;DHT22;22448;51.298;6.430;2022-10-28T13:24:58;23.20;99.90
35970;DHT22;22448;51.298;6.430;2022-10-28T13:27:27;23.20;99.90
35970;DHT22;22448;51.298;6.430;2022-10-28T13:29:57;23.20;99.90
35970;DHT22;22448;51.298;6.430;2022-10-28T13:35:23;23.20;99.90
35970;DHT22;22448;51.298;6.430;2022-10-28T13:37:52;23.20;99.90
35970;DHT22;22448;51.298;6.430;2022-10-28T13:42:49;23.00;99.90
35970;DHT22;22448;51.298;6.430;2022-10-28T13:45:49;22.90;99.90
35970;DHT22;22448;51.298;6.430;2022-10-28T13:59:14;22.50;99.90
35970;DHT22;22448;51.298;6.430;2022-10-28T14:01:50;22.50;99.90
35970;DHT22;22448;51.298;6.430;2022-10-28T14:04:38;22.40;99.90
35970;DHT22;22448;51.298;6.430;2022-10-28T14:07:16;22.40;99.90
35970;DHT22;22448;51.298;6.430;2022-10-28T14:09:50;22.40;99.90
35970;DHT22;22448;51.298;6.430;2022-10-28T14:12:48;22.30;99.90
35970;DHT22;22448;51.298;6.430;2022-10-28T14:15:25;22.20;99.90
35970;DHT22;22448;51.298;6.430;2022-10-28T14:18:02;22.10;99.90
35970;DHT22;22448;51.298;6.430;2022-10-28T14:33:43;21.80;99.90
35970;DHT22;22448;51.298;6.430;2022-10-28T14:50:57;21.60;99.90
35970;DHT22;22448;51.298;6.430;2022-10-28T14:53:07;21.60;99.90
35970;DHT22;22448;51.298;6.430;2022-10-28T14:55:39;21.50;99.90
35970;DHT22;22448;51.298;6.430;2022-10-28T14:58:11;21.50;99.90
35970;DHT22;22448;51.298;6.430;2022-10-28T15:03:26;21.30;99.90
35970;DHT22;22448;51.298;6.430;2022-10-28T15:05:53;21.20;99.90
35970;DHT22;22448;51.298;6.430;2022-10-28T15:08:21;21.10;99.90
35970;DHT22;22448;51.298;6.430;2022-10-28T15:10:49;21.10;99.90
35970;DHT22;22448;51.298;6.430;2022-10-28T15:13:17;21.00;99.90
35970;DHT22;22448;51.298;6.430;2022-10-28T15:15:53;20.90;99.90
35970;DHT22;22448;51.298;6.430;2022-10-28T15:18:24;20.90;99.90
35970;DHT22;22448;51.298;6.430;2022-10-28T15:21:09;20.80;99.90
35970;DHT22;22448;51.298;6.430;2022-10-28T15:23:36;20.70;99.90
35970;DHT22;22448;51.298;6.430;2022-10-28T15:26:14;20.70;99.90
35970;DHT22;22448;51.298;6.430;2022-10-28T15:28:42;20.60;99.90
35970;DHT22;22448;51.298;6.430;2022-10-28T15:31:09;20.60;99.90
35970;DHT22;22448;51.298;6.430;2022-10-28T15:33:38;20.50;99.90
35970;DHT22;22448;51.298;6.430;2022-10-28T15:36:14;20.40;99.90
35970;DHT22;22448;51.298;6.430;2022-10-28T15:39:06;20.30;99.90
35970;DHT22;22448;51.298;6.430;2022-10-28T15:41:44;20.30;99.90
35970;DHT22;22448;51.298;6.430;2022-10-28T15:44:23;20.20;99.90
35970;DHT22;22448;51.298;6.430;2022-10-28T15:46:52;20.20;99.90
35970;DHT22;22448;51.298;6.430;2022-10-28T15:49:37;20.10;99.90
35970;DHT22;22448;51.298;6.430;2022-10-28T15:52:19;20.00;99.90
35970;DHT22;22448;51.298;6.430;2022-10-28T15:57:23;19.80;99.90
35970;DHT22;22448;51.298;6.430;2022-10-28T16:00:16;19.80;99.90
35970;DHT22;22448;51.298;6.430;2022-10-28T16:05:43;19.60;99.90
35970;DHT22;22448;51.298;6.430;2022-10-28T16:10:47;19.50;99.90
35970;DHT22;22448;51.298;6.430;2022-10-28T16:13:26;19.40;99.90
35970;DHT22;22448;51.298;6.430;2022-10-28T16:16:04;19.40;99.90
35970;DHT22;22448;51.298;6.430;2022-10-28T16:18:37;19.30;99.90
35970;DHT22;22448;51.298;6.430;2022-10-28T16:21:05;19.20;99.90
35970;DHT22;22448;51.298;6.430;2022-10-28T16:23:37;19.20;99.90
35970;DHT22;22448;51.298;6.430;2022-10-28T16:26:04;19.10;99.90
35970;DHT22;22448;51.298;6.430;2022-10-28T16:28:32;19.00;99.90
35970;DHT22;22448;51.298;6.430;2022-10-28T16:31:00;19.00;99.90
35970;DHT22;22448;51.298;6.430;2022-10-28T16:33:34;18.90;99.90
35970;DHT22;22448;51.298;6.430;2022-10-28T16:36:03;18.80;99.90
35970;DHT22;22448;51.298;6.430;2022-10-28T16:38:30;18.70;99.90
35970;DHT22;22448;51.298;6.430;2022-10-28T16:41:01;18.60;99.90
35970;DHT22;22448;51.298;6.430;2022-10-28T16:43:30;18.50;99.90
35970;DHT22;22448;51.298;6.430;2022-10-28T16:45:58;18.40;99.90
35970;DHT22;22448;51.298;6.430;2022-10-28T16:48:28;18.30;99.90
35970;DHT22;22448;51.298;6.430;2022-10-28T16:50:58;18.20;99.90
35970;DHT22;22448;51.298;6.430;2022-10-28T16:53:26;18.20;99.90
35970;DHT22;22448;51.298;6.430;2022-10-28T16:55:53;18.10;99.90
35970;DHT22;22448;51.298;6.430;2022-10-28T16:58:27;18.00;99.90
35970;DHT22;22448;51.298;6.430;2022-10-28T17:00:55;17.90;99.90
35970;DHT22;22448;51.298;6.430;2022-10-28T17:03:22;17.90;99.90
35970;DHT22;22448;51.298;6.430;2022-10-28T17:05:49;17.80;99.90
35970;DHT22;22448;51.298;6.430;2022-10-28T17:08:16;17.70;99.90
35970;DHT22;22448;51.298;6.430;2022-10-28T17:11:03;17.60;99.90
35970;DHT22;22448;51.298;6.430;2022-10-28T17:13:32;17.50;99.90
35970;DHT22;22448;51.298;6.430;2022-10-28T17:15:59;17.50;99.90
35970;DHT22;22448;51.298;6.430;2022-10-28T17:18:26;17.50;99.90
35970;DHT22;22448;51.298;6.430;2022-10-28T17:21:00;17.40;99.90
35970;DHT22;22448;51.298;6.430;2022-10-28T17:23:28;17.30;99.90
35970;DHT22;22448;51.298;6.430;2022-10-28T17:26:00;17.30;99.90
35970;DHT22;22448;51.298;6.430;2022-10-28T17:28:27;17.20;99.90
35970;DHT22;22448;51.298;6.430;2022-10-28T17:31:03;17.10;99.90
35970;DHT22;22448;51.298;6.430;2022-10-28T17:33:31;17.10;99.90
35970;DHT22;22448;51.298;6.430;2022-10-28T17:36:05;17.10;99.90
35970;DHT22;22448;51.298;6.430;2022-10-28T17:38:33;17.00;99.90
35970;DHT22;22448;51.298;6.430;2022-10-28T17:41:00;17.00;99.90
35970;DHT22;22448;51.298;6.430;2022-10-28T17:43:28;17.00;99.90
35970;DHT22;22448;51.298;6.430;2022-10-28T17:46:05;16.90;99.90
35970;DHT22;22448;51.298;6.430;2022-10-28T17:48:33;16.80;99.90
35970;DHT22;22448;51.298;6.430;2022-10-28T17:51:00;16.80;99.90
35970;DHT22;22448;51.298;6.430;2022-10-28T17:53:27;16.70;99.90
35970;DHT22;22448;51.298;6.430;2022-10-28T17:56:00;16.60;99.90
35970;DHT22;22448;51.298;6.430;2022-10-28T17:58:28;16.60;99.90
35970;DHT22;22448;51.298;6.430;2022-10-28T18:01:04;16.60;99.90
35970;DHT22;22448;51.298;6.430;2022-10-28T18:03:31;16.50;99.90
35970;DHT22;22448;51.298;6.430;2022-10-28T18:06:05;16.50;99.90
35970;DHT22;22448;51.298;6.430;2022-10-28T18:08:34;16.40;99.90
35970;DHT22;22448;51.298;6.430;2022-10-28T18:11:04;16.30;99.90
35970;DHT22;22448;51.298;6.430;2022-10-28T18:13:33;16.30;99.90
35970;DHT22;22448;51.298;6.430;2022-10-28T18:16:08;16.30;99.90
35970;DHT22;22448;51.298;6.430;2022-10-28T18:18:36;16.20;99.90
35970;DHT22;22448;51.298;6.430;2022-10-28T18:21:10;16.20;99.90
35970;DHT22;22448;51.298;6.430;2022-10-28T18:23:37;16.20;99.90
35970;DHT22;22448;51.298;6.430;2022-10-28T18:26:10;16.10;99.90
35970;DHT22;22448;51.298;6.430;2022-10-28T18:28:39;16.10;99.90
35970;DHT22;22448;51.298;6.430;2022-10-28T18:31:14;16.10;99.90
35970;DHT22;22448;51.298;6.430;2022-10-28T18:33:42;16.00;99.90
35970;DHT22;22448;51.298;6.430;2022-10-28T18:36:23;16.00;99.90
35970;DHT22;22448;51.298;6.430;2022-10-28T18:38:50;15.90;99.90
35970;DHT22;22448;51.298;6.430;2022-10-28T18:41:22;15.90;99.90
35970;DHT22;22448;51.298;6.430;2022-10-28T18:44:03;15.90;99.90
35970;DHT22;22448;51.298;6.430;2022-10-28T18:46:33;15.80;99.90
35970;DHT22;22448;51.298;6.430;2022-10-28T18:49:03;15.80;99.90
35970;DHT22;22448;51.298;6.430;2022-10-28T18:51:32;15.80;99.90
35970;DHT22;22448;51.298;6.430;2022-10-28T18:53:59;15.80;99.90
35970;DHT22;22448;51.298;6.430;2022-10-28T18:56:27;15.80;99.90
35970;DHT22;22448;51.298;6.430;2022-10-28T18:58:56;15.70;99.90
35970;DHT22;22448;51.298;6.430;2022-10-28T19:01:27;15.80;99.90
35970;DHT22;22448;51.298;6.430;2022-10-28T19:03:56;15.80;99.90
35970;DHT22;22448;51.298;6.430;2022-10-28T19:06:24;15.70;99.90
35970;DHT22;22448;51.298;6.430;2022-10-28T19:08:54;15.80;99.90
35970;DHT22;22448;51.298;6.430;2022-10-28T19:11:23;15.80;99.90
35970;DHT22;22448;51.298;6.430;2022-10-28T19:13:51;15.90;99.90
35970;DHT22;22448;51.298;6.430;2022-10-28T19:16:18;15.90;99.90
35970;DHT22;22448;51.298;6.430;2022-10-28T19:18:45;15.90;99.90
35970;DHT22;22448;51.298;6.430;2022-10-28T19:21:14;16.00;99.90
35970;DHT22;22448;51.298;6.430;2022-10-28T19:23:42;16.00;99.90
35970;DHT22;22448;51.298;6.430;2022-10-28T19:26:10;16.00;99.90
35970;DHT22;22448;51.298;6.430;2022-10-28T19:28:40;16.00;99.90
35970;DHT22;22448;51.298;6.430;2022-10-28T19:31:10;16.10;99.90
35970;DHT22;22448;51.298;6.430;2022-10-28T19:33:37;16.10;99.90
35970;DHT22;22448;51.298;6.430;2022-10-28T19:38:46;16.20;99.90
35970;DHT22;22448;51.298;6.430;2022-10-28T19:41:16;16.20;99.90
35970;DHT22;22448;51.298;6.430;2022-10-28T19:43:44;16.20;99.90
35970;DHT22;22448;51.298;6.430;2022-10-28T19:46:14;16.30;99.90
35970;DHT22;22448;51.298;6.430;2022-10-28T19:48:43;16.30;99.90
35970;DHT22;22448;51.298;6.430;2022-10-28T19:51:15;16.30;99.90
35970;DHT22;22448;51.298;6.430;2022-10-28T19:53:51;16.30;99.90
35970;DHT22;22448;51.298;6.430;2022-10-28T19:56:19;16.40;99.90
35970;DHT22;22448;51.298;6.430;2022-10-28T19:58:50;16.40;99.90
35970;DHT22;22448;51.298;6.430;2022-10-28T20:01:19;16.40;99.90
35970;DHT22;22448;51.298;6.430;2022-10-28T20:03:48;16.40;99.90
35970;DHT22;22448;51.298;6.430;2022-10-28T20:06:18;16.30;99.90
35970;DHT22;22448;51.298;6.430;2022-10-28T20:08:46;16.30;99.90
35970;DHT22;22448;51.298;6.430;2022-10-28T20:11:34;16.30;99.90
35970;DHT22;22448;51.298;6.430;2022-10-28T20:14:03;16.30;99.90
35970;DHT22;22448;51.298;6.430;2022-10-28T20:16:31;16.20;99.90
35970;DHT22;22448;51.298;6.430;2022-10-28T20:18:59;16.20;99.90
35970;DHT22;22448;51.298;6.430;2022-10-28T20:21:27;16.10;99.90
35970;DHT22;22448;51.298;6.430;2022-10-28T20:23:56;16.10;99.90
35970;DHT22;22448;51.298;6.430;2022-10-28T20:26:28;16.00;99.90
35970;DHT22;22448;51.298;6.430;2022-10-28T20:28:56;15.90;99.90
35970;DHT22;22448;51.298;6.430;2022-10-28T20:31:25;15.90;99.90
35970;DHT22;22448;51.298;6.430;2022-10-28T20:33:54;15.80;99.90
35970;DHT22;22448;51.298;6.430;2022-10-28T20:38:56;15.70;99.90
35970;DHT22;22448;51.298;6.430;2022-10-28T20:41:24;15.60;99.90
35970;DHT22;22448;51.298;6.430;2022-10-28T20:43:52;15.60;99.90
35970;DHT22;22448;51.298;6.430;2022-10-28T20:46:21;15.50;99.90
35970;DHT22;22448;51.298;6.430;2022-10-28T20:48:48;15.50;99.90
35970;DHT22;22448;51.298;6.430;2022-10-28T20:51:15;15.50;99.90
35970;DHT22;22448;51.298;6.430;2022-10-28T20:53:42;15.50;99.90
35970;DHT22;22448;51.298;6.430;2022-10-28T20:56:21;15.50;99.90
35970;DHT22;22448;51.298;6.430;2022-10-28T20:58:50;15.50;99.90
35970;DHT22;22448;51.298;6.430;2022-10-28T21:01:19;15.50;99.90
35970;DHT22;22448;51.298;6.430;2022-10-28T21:03:47;15.60;99.90
35970;DHT22;22448;51.298;6.430;2022-10-28T21:06:16;15.50;99.90
35970;DHT22;22448;51.298;6.430;2022-10-28T21:08:43;15.50;99.90
35970;DHT22;22448;51.298;6.430;2022-10-28T21:11:12;15.50;99.90
35970;DHT22;22448;51.298;6.430;2022-10-28T21:13:40;15.50;99.90
35970;DHT22;22448;51.298;6.430;2022-10-28T21:16:09;15.50;99.90
35970;DHT22;22448;51.298;6.430;2022-10-28T21:18:37;15.50;99.90
35970;DHT22;22448;51.298;6.430;2022-10-28T21:21:05;15.40;99.90
35970;DHT22;22448;51.298;6.430;2022-10-28T21:23:32;15.40;99.90
35970;DHT22;22448;51.298;6.430;2022-10-28T21:26:01;15.40;99.90
35970;DHT22;22448;51.298;6.430;2022-10-28T21:28:29;15.40;99.90
35970;DHT22;22448;51.298;6.430;2022-10-28T21:31:01;15.40;99.90
35970;DHT22;22448;51.298;6.430;2022-10-28T21:33:29;15.30;99.90
35970;DHT22;22448;51.298;6.430;2022-10-28T21:35:57;15.30;99.90
35970;DHT22;22448;51.298;6.430;2022-10-28T21:38:26;15.30;99.90
35970;DHT22;22448;51.298;6.430;2022-10-28T21:43:33;15.20;99.90
35970;DHT22;22448;51.298;6.430;2022-10-28T21:46:01;15.10;99.90
35970;DHT22;22448;51.298;6.430;2022-10-28T21:48:28;15.10;99.90
35970;DHT22;22448;51.298;6.430;2022-10-28T21:50:58;15.10;99.90
35970;DHT22;22448;51.298;6.430;2022-10-28T21:53:26;15.10;99.90
35970;DHT22;22448;51.298;6.430;2022-10-28T21:56:04;15.00;99.90
35970;DHT22;22448;51.298;6.430;2022-10-28T21:58:33;15.00;99.90
35970;DHT22;22448;51.298;6.430;2022-10-28T22:01:02;15.00;99.90
35970;DHT22;22448;51.298;6.430;2022-10-28T22:03:29;15.00;99.90
35970;DHT22;22448;51.298;6.430;2022-10-28T22:05:56;15.10;99.90
35970;DHT22;22448;51.298;6.430;2022-10-28T22:08:23;15.10;99.90
35970;DHT22;22448;51.298;6.430;2022-10-28T22:11:10;15.10;99.90
35970;DHT22;22448;51.298;6.430;2022-10-28T22:13:37;15.10;99.90
35970;DHT22;22448;51.298;6.430;2022-10-28T22:16:07;15.10;99.90
35970;DHT22;22448;51.298;6.430;2022-10-28T22:18:36;15.10;99.90
35970;DHT22;22448;51.298;6.430;2022-10-28T22:21:06;15.20;99.90
35970;DHT22;22448;51.298;6.430;2022-10-28T22:23:34;15.10;99.90
35970;DHT22;22448;51.298;6.430;2022-10-28T22:26:02;15.00;99.90
35970;DHT22;22448;51.298;6.430;2022-10-28T22:28:30;15.00;99.90
35970;DHT22;22448;51.298;6.430;2022-10-28T22:31:03;14.90;99.90
35970;DHT22;22448;51.298;6.430;2022-10-28T22:33:30;14.90;99.90
35970;DHT22;22448;51.298;6.430;2022-10-28T22:35:59;14.80;99.90
35970;DHT22;22448;51.298;6.430;2022-10-28T22:38:26;14.80;99.90
35970;DHT22;22448;51.298;6.430;2022-10-28T22:41:10;14.70;99.90
35970;DHT22;22448;51.298;6.430;2022-10-28T22:43:39;14.60;99.90
35970;DHT22;22448;51.298;6.430;2022-10-28T22:46:06;14.60;99.90
35970;DHT22;22448;51.298;6.430;2022-10-28T22:48:33;14.50;99.90
35970;DHT22;22448;51.298;6.430;2022-10-28T22:51:00;14.50;99.90
35970;DHT22;22448;51.298;6.430;2022-10-28T22:53:28;14.40;99.90
35970;DHT22;22448;51.298;6.430;2022-10-28T22:55:55;14.40;99.90
35970;DHT22;22448;51.298;6.430;2022-10-28T22:58:24;14.40;99.90
35970;DHT22;22448;51.298;6.430;2022-10-28T23:00:52;14.30;99.90
35970;DHT22;22448;51.298;6.430;2022-10-28T23:03:18;14.30;99.90
35970;DHT22;22448;51.298;6.430;2022-10-28T23:05:45;14.30;99.90
35970;DHT22;22448;51.298;6.430;2022-10-28T23:08:15;14.30;99.90
35970;DHT22;22448;51.298;6.430;2022-10-28T23:10:42;14.30;99.90
35970;DHT22;22448;51.298;6.430;2022-10-28T23:13:11;14.30;99.90
35970;DHT22;22448;51.298;6.430;2022-10-28T23:15:38;14.30;99.90
35970;DHT22;22448;51.298;6.430;2022-10-28T23:18:05;14.30;99.90
35970;DHT22;22448;51.298;6.430;2022-10-28T23:20:34;14.30;99.90
35970;DHT22;22448;51.298;6.430;2022-10-28T23:23:02;14.30;99.90
35970;DHT22;22448;51.298;6.430;2022-10-28T23:25:29;14.20;99.90
35970;DHT22;22448;51.298;6.430;2022-10-28T23:27:56;14.30;99.90
35970;DHT22;22448;51.298;6.430;2022-10-28T23:30:23;14.20;99.90
35970;DHT22;22448;51.298;6.430;2022-10-28T23:32:50;14.30;99.90
35970;DHT22;22448;51.298;6.430;2022-10-28T23:35:17;14.30;99.90
35970;DHT22;22448;51.298;6.430;2022-10-28T23:37:44;14.30;99.90
35970;DHT22;22448;51.298;6.430;2022-10-28T23:40:11;14.40;99.90
35970;DHT22;22448;51.298;6.430;2022-10-28T23:42:38;14.40;99.90
35970;DHT22;22448;51.298;6.430;2022-10-28T23:45:06;14.50;99.90
35970;DHT22;22448;51.298;6.430;2022-10-28T23:47:33;14.50;99.90
35970;DHT22;22448;51.298;6.430;2022-10-28T23:50:00;14.50;99.90
35970;DHT22;22448;51.298;6.430;2022-10-28T23:52:27;14.50;99.90
35970;DHT22;22448;51.298;6.430;2022-10-28T23:54:54;14.60;99.90
35970;DHT22;22448;51.298;6.430;2022-10-28T23:57:21;14.60;99.90
35970;DHT22;22448;51.298;6.430;2022-10-28T23:59:48;14.60;99.90
